sensor_id;sensor_type;location;lat;lon;timestamp;temperature;humidity
65378;SHT31;51982;51.042;13.806;2024-01-25T00:01:07;10.89;74.67
65378;SHT31;51982;51.042;13.806;2024-01-25T00:03:32;10.91;74.57
65378;SHT31;51982;51.042;13.806;2024-01-25T00:05:57;10.95;74.72
65378;SHT31;51982;51.042;13.806;2024-01-25T00:08:23;11.00;74.59
65378;SHT31;51982;51.042;13.806;2024-01-25T00:10:48;11.02;74.78
65378;SHT31;51982;51.042;13.806;2024-01-25T00:13:13;10.98;74.58
65378;SHT31;51982;51.042;13.806;2024-01-25T00:15:38;10.98;74.70
65378;SHT31;51982;51.042;13.806;2024-01-25T00:18:04;10.95;74.66
65378;SHT31;51982;51.042;13.806;2024-01-25T00:20:29;10.99;74.76
65378;SHT31;51982;51.042;13.806;2024-01-25T00:22:54;10.96;74.78
65378;SHT31;51982;51.042;13.806;2024-01-25T00:25:19;10.98;74.64
65378;SHT31;51982;51.042;13.806;2024-01-25T00:27:45;10.98;74.60
65378;SHT31;51982;51.042;13.806;2024-01-25T00:30:10;10.99;74.72
65378;SHT31;51982;51.042;13.806;2024-01-25T00:32:35;10.99;74.78
65378;SHT31;51982;51.042;13.806;2024-01-25T00:35:02;11.02;74.62
65378;SHT31;51982;51.042;13.806;2024-01-25T00:37:27;11.03;74.48
65378;SHT31;51982;51.042;13.806;2024-01-25T00:39:53;11.00;74.53
65378;SHT31;51982;51.042;13.806;2024-01-25T00:42:21;11.02;74.45
65378;SHT31;51982;51.042;13.806;2024-01-25T00:44:47;11.09;74.33
65378;SHT31;51982;51.042;13.806;2024-01-25T00:47:12;11.10;74.16
65378;SHT31;51982;51.042;13.806;2024-01-25T00:49:38;11.09;74.18
65378;SHT31;51982;51.042;13.806;2024-01-25T00:52:04;11.10;74.18
65378;SHT31;51982;51.042;13.806;2024-01-25T00:54:30;11.06;74.11
65378;SHT31;51982;51.042;13.806;2024-01-25T00:56:55;11.05;74.17
65378;SHT31;51982;51.042;13.806;2024-01-25T00:59:21;11.09;74.07
65378;SHT31;51982;51.042;13.806;2024-01-25T01:01:47;11.05;74.00
65378;SHT31;51982;51.042;13.806;2024-01-25T01:04:13;11.08;73.86
65378;SHT31;51982;51.042;13.806;2024-01-25T01:06:39;11.09;73.87
65378;SHT31;51982;51.042;13.806;2024-01-25T01:09:04;11.08;73.90
65378;SHT31;51982;51.042;13.806;2024-01-25T01:11:30;11.09;73.84
65378;SHT31;51982;51.042;13.806;2024-01-25T01:13:55;11.12;73.88
65378;SHT31;51982;51.042;13.806;2024-01-25T01:16:20;11.06;73.93
65378;SHT31;51982;51.042;13.806;2024-01-25T01:18:46;11.05;73.95
65378;SHT31;51982;51.042;13.806;2024-01-25T01:21:11;11.05;73.89
65378;SHT31;51982;51.042;13.806;2024-01-25T01:23:36;11.12;73.94
65378;SHT31;51982;51.042;13.806;2024-01-25T01:26:03;11.13;73.89
65378;SHT31;51982;51.042;13.806;2024-01-25T01:28:28;11.09;74.02
65378;SHT31;51982;51.042;13.806;2024-01-25T01:30:54;11.09;73.91
65378;SHT31;51982;51.042;13.806;2024-01-25T01:33:19;11.08;73.85
65378;SHT31;51982;51.042;13.806;2024-01-25T01:35:44;11.06;73.87
65378;SHT31;51982;51.042;13.806;2024-01-25T01:38:09;11.05;73.95
65378;SHT31;51982;51.042;13.806;2024-01-25T01:40:34;11.08;74.04
65378;SHT31;51982;51.042;13.806;2024-01-25T01:43:00;11.05;73.84
65378;SHT31;51982;51.042;13.806;2024-01-25T01:45:26;11.06;73.90
65378;SHT31;51982;51.042;13.806;2024-01-25T01:47:51;11.08;73.85
65378;SHT31;51982;51.042;13.806;2024-01-25T01:50:17;11.03;74.00
65378;SHT31;51982;51.042;13.806;2024-01-25T01:52:42;11.05;73.75
65378;SHT31;51982;51.042;13.806;2024-01-25T01:55:08;11.06;73.76
65378;SHT31;51982;51.042;13.806;2024-01-25T01:57:34;11.08;73.78
65378;SHT31;51982;51.042;13.806;2024-01-25T02:00:02;11.03;73.87
65378;SHT31;51982;51.042;13.806;2024-01-25T02:02:29;11.00;74.03
65378;SHT31;51982;51.042;13.806;2024-01-25T02:04:54;11.00;73.82
65378;SHT31;51982;51.042;13.806;2024-01-25T02:07:19;11.05;73.88
65378;SHT31;51982;51.042;13.806;2024-01-25T02:09:45;11.03;73.92
65378;SHT31;51982;51.042;13.806;2024-01-25T02:12:10;11.06;73.84
65378;SHT31;51982;51.042;13.806;2024-01-25T02:14:35;10.99;73.92
65378;SHT31;51982;51.042;13.806;2024-01-25T02:17:01;11.00;73.73
65378;SHT31;51982;51.042;13.806;2024-01-25T02:19:26;11.03;73.89
65378;SHT31;51982;51.042;13.806;2024-01-25T02:21:53;11.00;73.78
65378;SHT31;51982;51.042;13.806;2024-01-25T02:24:19;11.00;73.82
65378;SHT31;51982;51.042;13.806;2024-01-25T02:26:44;11.00;73.76
65378;SHT31;51982;51.042;13.806;2024-01-25T02:29:09;11.02;73.70
65378;SHT31;51982;51.042;13.806;2024-01-25T02:31:35;11.05;73.74
65378;SHT31;51982;51.042;13.806;2024-01-25T02:34:00;11.03;73.56
65378;SHT31;51982;51.042;13.806;2024-01-25T02:36:25;11.02;73.61
65378;SHT31;51982;51.042;13.806;2024-01-25T02:38:50;11.00;73.61
65378;SHT31;51982;51.042;13.806;2024-01-25T02:41:16;11.06;73.46
65378;SHT31;51982;51.042;13.806;2024-01-25T02:43:41;11.05;73.56
65378;SHT31;51982;51.042;13.806;2024-01-25T02:46:07;11.06;73.53
65378;SHT31;51982;51.042;13.806;2024-01-25T02:48:32;11.05;73.61
65378;SHT31;51982;51.042;13.806;2024-01-25T02:50:58;11.08;73.69
65378;SHT31;51982;51.042;13.806;2024-01-25T02:53:23;11.02;73.54
65378;SHT31;51982;51.042;13.806;2024-01-25T02:55:48;10.98;73.61
65378;SHT31;51982;51.042;13.806;2024-01-25T02:58:13;10.93;73.72
65378;SHT31;51982;51.042;13.806;2024-01-25T03:00:38;10.95;73.80
65378;SHT31;51982;51.042;13.806;2024-01-25T03:03:04;10.91;73.71
65378;SHT31;51982;51.042;13.806;2024-01-25T03:05:29;10.96;73.75
65378;SHT31;51982;51.042;13.806;2024-01-25T03:07:54;10.96;73.82
65378;SHT31;51982;51.042;13.806;2024-01-25T03:10:20;10.89;73.76
65378;SHT31;51982;51.042;13.806;2024-01-25T03:12:45;10.92;73.87
65378;SHT31;51982;51.042;13.806;2024-01-25T03:15:11;10.95;73.88
65378;SHT31;51982;51.042;13.806;2024-01-25T03:17:36;10.95;73.79
65378;SHT31;51982;51.042;13.806;2024-01-25T03:20:02;10.93;73.83
65378;SHT31;51982;51.042;13.806;2024-01-25T03:22:27;10.93;73.81
65378;SHT31;51982;51.042;13.806;2024-01-25T03:24:52;10.96;73.62
65378;SHT31;51982;51.042;13.806;2024-01-25T03:27:18;10.95;73.67
65378;SHT31;51982;51.042;13.806;2024-01-25T03:29:43;10.92;73.66
65378;SHT31;51982;51.042;13.806;2024-01-25T03:32:12;10.91;73.50
65378;SHT31;51982;51.042;13.806;2024-01-25T03:34:37;10.89;73.49
65378;SHT31;51982;51.042;13.806;2024-01-25T03:37:03;10.88;73.38
65378;SHT31;51982;51.042;13.806;2024-01-25T03:39:28;10.78;73.51
65378;SHT31;51982;51.042;13.806;2024-01-25T03:41:53;10.82;73.67
65378;SHT31;51982;51.042;13.806;2024-01-25T03:44:18;10.83;73.57
65378;SHT31;51982;51.042;13.806;2024-01-25T03:46:44;10.86;73.37
65378;SHT31;51982;51.042;13.806;2024-01-25T03:49:09;10.76;73.36
65378;SHT31;51982;51.042;13.806;2024-01-25T03:51:34;10.83;73.46
65378;SHT31;51982;51.042;13.806;2024-01-25T03:53:59;10.86;73.43
65378;SHT31;51982;51.042;13.806;2024-01-25T03:56:25;10.82;73.28
65378;SHT31;51982;51.042;13.806;2024-01-25T03:58:51;10.82;73.21
65378;SHT31;51982;51.042;13.806;2024-01-25T04:01:17;10.78;73.28
65378;SHT31;51982;51.042;13.806;2024-01-25T04:03:42;10.78;73.42
65378;SHT31;51982;51.042;13.806;2024-01-25T04:06:07;10.79;73.30
65378;SHT31;51982;51.042;13.806;2024-01-25T04:08:32;10.76;73.32
65378;SHT31;51982;51.042;13.806;2024-01-25T04:10:58;10.76;73.44
65378;SHT31;51982;51.042;13.806;2024-01-25T04:13:23;10.81;73.35
65378;SHT31;51982;51.042;13.806;2024-01-25T04:15:48;10.79;73.35
65378;SHT31;51982;51.042;13.806;2024-01-25T04:18:14;10.73;73.35
65378;SHT31;51982;51.042;13.806;2024-01-25T04:20:41;10.69;73.36
65378;SHT31;51982;51.042;13.806;2024-01-25T04:23:06;10.69;73.35
65378;SHT31;51982;51.042;13.806;2024-01-25T04:25:31;10.67;73.45
65378;SHT31;51982;51.042;13.806;2024-01-25T04:27:57;10.65;73.45
65378;SHT31;51982;51.042;13.806;2024-01-25T04:30:22;10.65;73.47
65378;SHT31;51982;51.042;13.806;2024-01-25T04:32:47;10.68;73.50
65378;SHT31;51982;51.042;13.806;2024-01-25T04:35:12;10.62;73.48
65378;SHT31;51982;51.042;13.806;2024-01-25T04:37:37;10.68;73.48
65378;SHT31;51982;51.042;13.806;2024-01-25T04:40:03;10.64;73.54
65378;SHT31;51982;51.042;13.806;2024-01-25T04:42:30;10.65;73.58
65378;SHT31;51982;51.042;13.806;2024-01-25T04:44:55;10.65;73.53
65378;SHT31;51982;51.042;13.806;2024-01-25T04:47:20;10.59;73.62
65378;SHT31;51982;51.042;13.806;2024-01-25T04:49:45;10.58;73.63
65378;SHT31;51982;51.042;13.806;2024-01-25T04:52:12;10.57;73.68
65378;SHT31;51982;51.042;13.806;2024-01-25T04:54:37;10.59;73.51
65378;SHT31;51982;51.042;13.806;2024-01-25T04:57:02;10.59;73.51
65378;SHT31;51982;51.042;13.806;2024-01-25T04:59:31;10.58;73.43
65378;SHT31;51982;51.042;13.806;2024-01-25T05:01:56;10.61;73.58
65378;SHT31;51982;51.042;13.806;2024-01-25T05:04:23;10.59;73.66
65378;SHT31;51982;51.042;13.806;2024-01-25T05:06:48;10.58;73.71
65378;SHT31;51982;51.042;13.806;2024-01-25T05:09:13;10.61;73.51
65378;SHT31;51982;51.042;13.806;2024-01-25T05:11:39;10.61;73.56
65378;SHT31;51982;51.042;13.806;2024-01-25T05:14:05;10.64;73.47
65378;SHT31;51982;51.042;13.806;2024-01-25T05:16:30;10.57;73.35
65378;SHT31;51982;51.042;13.806;2024-01-25T05:18:55;10.58;73.37
65378;SHT31;51982;51.042;13.806;2024-01-25T05:21:21;10.64;73.24
65378;SHT31;51982;51.042;13.806;2024-01-25T05:23:46;10.57;73.36
65378;SHT31;51982;51.042;13.806;2024-01-25T05:26:12;10.55;73.56
65378;SHT31;51982;51.042;13.806;2024-01-25T05:28:37;10.54;73.53
65378;SHT31;51982;51.042;13.806;2024-01-25T05:31:03;10.51;73.45
65378;SHT31;51982;51.042;13.806;2024-01-25T05:33:28;10.52;73.32
65378;SHT31;51982;51.042;13.806;2024-01-25T05:35:53;10.52;73.33
65378;SHT31;51982;51.042;13.806;2024-01-25T05:38:19;10.48;73.16
65378;SHT31;51982;51.042;13.806;2024-01-25T05:40:44;10.52;73.18
65378;SHT31;51982;51.042;13.806;2024-01-25T05:43:09;10.54;73.21
65378;SHT31;51982;51.042;13.806;2024-01-25T05:45:34;10.58;73.28
65378;SHT31;51982;51.042;13.806;2024-01-25T05:48:00;10.59;73.06
65378;SHT31;51982;51.042;13.806;2024-01-25T05:50:25;10.61;72.97
65378;SHT31;51982;51.042;13.806;2024-01-25T05:52:50;10.64;72.88
65378;SHT31;51982;51.042;13.806;2024-01-25T05:55:15;10.57;72.69
65378;SHT31;51982;51.042;13.806;2024-01-25T05:57:42;10.55;72.76
65378;SHT31;51982;51.042;13.806;2024-01-25T06:00:08;10.57;72.77
65378;SHT31;51982;51.042;13.806;2024-01-25T06:02:36;10.57;72.99
65378;SHT31;51982;51.042;13.806;2024-01-25T06:05:01;10.59;72.88
65378;SHT31;51982;51.042;13.806;2024-01-25T06:07:26;10.55;72.92
65378;SHT31;51982;51.042;13.806;2024-01-25T06:09:53;10.51;73.03
65378;SHT31;51982;51.042;13.806;2024-01-25T06:12:18;10.55;73.05
65378;SHT31;51982;51.042;13.806;2024-01-25T06:14:43;10.58;73.13
65378;SHT31;51982;51.042;13.806;2024-01-25T06:17:09;10.57;73.22
65378;SHT31;51982;51.042;13.806;2024-01-25T06:19:34;10.54;73.25
65378;SHT31;51982;51.042;13.806;2024-01-25T06:22:00;10.48;73.31
65378;SHT31;51982;51.042;13.806;2024-01-25T06:24:25;10.49;73.66
65378;SHT31;51982;51.042;13.806;2024-01-25T06:26:50;10.47;73.61
65378;SHT31;51982;51.042;13.806;2024-01-25T06:29:15;10.41;73.79
65378;SHT31;51982;51.042;13.806;2024-01-25T06:31:42;10.40;73.71
65378;SHT31;51982;51.042;13.806;2024-01-25T06:34:08;10.33;73.64
65378;SHT31;51982;51.042;13.806;2024-01-25T06:36:33;10.38;73.59
65378;SHT31;51982;51.042;13.806;2024-01-25T06:38:58;10.42;73.63
65378;SHT31;51982;51.042;13.806;2024-01-25T06:41:24;10.38;73.81
65378;SHT31;51982;51.042;13.806;2024-01-25T06:43:50;10.37;73.56
65378;SHT31;51982;51.042;13.806;2024-01-25T06:46:15;10.38;73.47
65378;SHT31;51982;51.042;13.806;2024-01-25T06:48:40;10.37;73.51
65378;SHT31;51982;51.042;13.806;2024-01-25T06:51:05;10.31;73.55
65378;SHT31;51982;51.042;13.806;2024-01-25T06:53:31;10.30;73.40
65378;SHT31;51982;51.042;13.806;2024-01-25T06:55:56;10.31;73.50
65378;SHT31;51982;51.042;13.806;2024-01-25T06:58:21;10.34;73.43
65378;SHT31;51982;51.042;13.806;2024-01-25T07:00:46;10.36;73.36
65378;SHT31;51982;51.042;13.806;2024-01-25T07:03:12;10.34;73.27
65378;SHT31;51982;51.042;13.806;2024-01-25T07:05:38;10.33;73.20
65378;SHT31;51982;51.042;13.806;2024-01-25T07:08:03;10.37;73.26
65378;SHT31;51982;51.042;13.806;2024-01-25T07:10:29;10.34;72.90
65378;SHT31;51982;51.042;13.806;2024-01-25T07:12:54;10.27;72.95
65378;SHT31;51982;51.042;13.806;2024-01-25T07:15:20;10.34;73.05
65378;SHT31;51982;51.042;13.806;2024-01-25T07:17:45;10.28;72.75
65378;SHT31;51982;51.042;13.806;2024-01-25T07:20:10;10.36;72.90
65378;SHT31;51982;51.042;13.806;2024-01-25T07:22:36;10.34;72.69
65378;SHT31;51982;51.042;13.806;2024-01-25T07:25:01;10.31;72.57
65378;SHT31;51982;51.042;13.806;2024-01-25T07:27:26;10.36;72.69
65378;SHT31;51982;51.042;13.806;2024-01-25T07:29:51;10.41;72.76
65378;SHT31;51982;51.042;13.806;2024-01-25T07:32:18;10.44;72.81
65378;SHT31;51982;51.042;13.806;2024-01-25T07:34:43;10.41;72.89
65378;SHT31;51982;51.042;13.806;2024-01-25T07:37:08;10.38;72.87
65378;SHT31;51982;51.042;13.806;2024-01-25T07:39:36;10.44;72.73
65378;SHT31;51982;51.042;13.806;2024-01-25T07:42:01;10.51;72.67
65378;SHT31;51982;51.042;13.806;2024-01-25T07:44:26;10.48;72.63
65378;SHT31;51982;51.042;13.806;2024-01-25T07:46:52;10.49;72.65
65378;SHT31;51982;51.042;13.806;2024-01-25T07:49:17;10.45;72.68
65378;SHT31;51982;51.042;13.806;2024-01-25T07:51:42;10.49;72.91
65378;SHT31;51982;51.042;13.806;2024-01-25T07:54:07;10.51;72.70
65378;SHT31;51982;51.042;13.806;2024-01-25T07:56:33;10.54;72.83
65378;SHT31;51982;51.042;13.806;2024-01-25T07:58:58;10.58;72.66
65378;SHT31;51982;51.042;13.806;2024-01-25T08:01:25;10.59;72.50
65378;SHT31;51982;51.042;13.806;2024-01-25T08:03:50;10.62;72.46
65378;SHT31;51982;51.042;13.806;2024-01-25T08:06:15;10.64;72.38
65378;SHT31;51982;51.042;13.806;2024-01-25T08:08:40;10.64;72.47
65378;SHT31;51982;51.042;13.806;2024-01-25T08:11:06;10.59;72.50
65378;SHT31;51982;51.042;13.806;2024-01-25T08:13:33;10.62;72.48
65378;SHT31;51982;51.042;13.806;2024-01-25T08:15:58;10.65;72.56
65378;SHT31;51982;51.042;13.806;2024-01-25T08:18:23;10.72;72.38
65378;SHT31;51982;51.042;13.806;2024-01-25T08:20:49;10.81;72.41
65378;SHT31;51982;51.042;13.806;2024-01-25T08:23:15;10.82;72.52
65378;SHT31;51982;51.042;13.806;2024-01-25T08:25:41;10.78;72.48
65378;SHT31;51982;51.042;13.806;2024-01-25T08:28:06;10.79;72.67
65378;SHT31;51982;51.042;13.806;2024-01-25T08:30:31;10.76;72.60
65378;SHT31;51982;51.042;13.806;2024-01-25T08:32:57;10.82;72.71
65378;SHT31;51982;51.042;13.806;2024-01-25T08:35:22;10.78;72.77
65378;SHT31;51982;51.042;13.806;2024-01-25T08:37:49;10.73;72.82
65378;SHT31;51982;51.042;13.806;2024-01-25T08:40:14;10.76;72.92
65378;SHT31;51982;51.042;13.806;2024-01-25T08:42:39;10.85;72.93
65378;SHT31;51982;51.042;13.806;2024-01-25T08:45:05;10.91;72.89
65378;SHT31;51982;51.042;13.806;2024-01-25T08:47:34;10.92;72.98
65378;SHT31;51982;51.042;13.806;2024-01-25T08:50:00;10.98;72.90
65378;SHT31;51982;51.042;13.806;2024-01-25T08:52:25;10.96;72.92
65378;SHT31;51982;51.042;13.806;2024-01-25T08:54:51;10.95;72.95
65378;SHT31;51982;51.042;13.806;2024-01-25T08:57:16;10.96;73.09
65378;SHT31;51982;51.042;13.806;2024-01-25T08:59:41;10.85;73.00
65378;SHT31;51982;51.042;13.806;2024-01-25T09:02:07;10.92;73.13
65378;SHT31;51982;51.042;13.806;2024-01-25T09:04:32;10.99;72.98
65378;SHT31;51982;51.042;13.806;2024-01-25T09:06:58;11.00;73.01
65378;SHT31;51982;51.042;13.806;2024-01-25T09:09:23;10.99;72.97
65378;SHT31;51982;51.042;13.806;2024-01-25T09:11:48;10.91;72.99
65378;SHT31;51982;51.042;13.806;2024-01-25T09:14:13;11.00;73.08
65378;SHT31;51982;51.042;13.806;2024-01-25T09:16:38;11.02;73.07
65378;SHT31;51982;51.042;13.806;2024-01-25T09:19:04;11.09;72.88
65378;SHT31;51982;51.042;13.806;2024-01-25T09:21:30;11.24;72.70
65378;SHT31;51982;51.042;13.806;2024-01-25T09:23:55;11.18;72.60
65378;SHT31;51982;51.042;13.806;2024-01-25T09:26:20;11.20;72.59
65378;SHT31;51982;51.042;13.806;2024-01-25T09:28:45;11.19;72.55
65378;SHT31;51982;51.042;13.806;2024-01-25T09:31:10;11.19;72.50
65378;SHT31;51982;51.042;13.806;2024-01-25T09:33:36;11.23;72.66
65378;SHT31;51982;51.042;13.806;2024-01-25T09:36:01;11.27;72.34
65378;SHT31;51982;51.042;13.806;2024-01-25T09:38:26;11.19;72.26
65378;SHT31;51982;51.042;13.806;2024-01-25T09:40:52;11.16;72.43
65378;SHT31;51982;51.042;13.806;2024-01-25T09:43:17;11.08;72.59
65378;SHT31;51982;51.042;13.806;2024-01-25T09:45:46;11.22;74.31
65378;SHT31;51982;51.042;13.806;2024-01-25T09:48:14;11.43;76.11
65378;SHT31;51982;51.042;13.806;2024-01-25T09:50:40;11.49;74.20
65378;SHT31;51982;51.042;13.806;2024-01-25T09:53:06;11.56;73.65
65378;SHT31;51982;51.042;13.806;2024-01-25T09:55:35;11.63;74.86
65378;SHT31;51982;51.042;13.806;2024-01-25T09:58:03;11.69;73.84
65378;SHT31;51982;51.042;13.806;2024-01-25T10:00:32;11.63;73.18
65378;SHT31;51982;51.042;13.806;2024-01-25T10:02:58;11.61;72.45
65378;SHT31;51982;51.042;13.806;2024-01-25T10:05:23;11.59;72.86
65378;SHT31;51982;51.042;13.806;2024-01-25T10:07:48;11.50;72.48
65378;SHT31;51982;51.042;13.806;2024-01-25T10:10:14;11.50;72.46
65378;SHT31;51982;51.042;13.806;2024-01-25T10:12:42;11.42;73.52
65378;SHT31;51982;51.042;13.806;2024-01-25T10:15:09;11.46;72.97
65378;SHT31;51982;51.042;13.806;2024-01-25T10:17:34;11.40;72.61
65378;SHT31;51982;51.042;13.806;2024-01-25T10:20:00;11.46;72.61
65378;SHT31;51982;51.042;13.806;2024-01-25T10:22:25;11.54;72.30
65378;SHT31;51982;51.042;13.806;2024-01-25T10:24:52;11.44;72.32
65378;SHT31;51982;51.042;13.806;2024-01-25T10:27:18;11.42;72.18
65378;SHT31;51982;51.042;13.806;2024-01-25T10:29:44;11.50;71.85
65378;SHT31;51982;51.042;13.806;2024-01-25T10:32:09;11.57;71.89
65378;SHT31;51982;51.042;13.806;2024-01-25T10:34:38;11.64;71.86
65378;SHT31;51982;51.042;13.806;2024-01-25T10:37:05;11.71;72.07
65378;SHT31;51982;51.042;13.806;2024-01-25T10:39:32;11.49;71.80
65378;SHT31;51982;51.042;13.806;2024-01-25T10:41:58;11.63;72.09
65378;SHT31;51982;51.042;13.806;2024-01-25T10:44:24;11.59;72.13
65378;SHT31;51982;51.042;13.806;2024-01-25T10:46:49;11.66;71.88
65378;SHT31;51982;51.042;13.806;2024-01-25T10:49:15;11.64;71.83
65378;SHT31;51982;51.042;13.806;2024-01-25T10:51:41;11.56;72.14
65378;SHT31;51982;51.042;13.806;2024-01-25T10:54:10;11.47;72.08
65378;SHT31;51982;51.042;13.806;2024-01-25T10:56:37;11.42;72.14
65378;SHT31;51982;51.042;13.806;2024-01-25T10:59:03;11.53;72.00
65378;SHT31;51982;51.042;13.806;2024-01-25T11:01:28;11.56;71.85
65378;SHT31;51982;51.042;13.806;2024-01-25T11:03:54;11.60;71.72
65378;SHT31;51982;51.042;13.806;2024-01-25T11:06:21;11.63;71.76
65378;SHT31;51982;51.042;13.806;2024-01-25T11:08:49;11.60;71.58
65378;SHT31;51982;51.042;13.806;2024-01-25T11:11:15;11.56;72.42
65378;SHT31;51982;51.042;13.806;2024-01-25T11:13:44;11.51;72.03
65378;SHT31;51982;51.042;13.806;2024-01-25T11:18:52;11.67;71.78
65378;SHT31;51982;51.042;13.806;2024-01-25T11:21:40;11.67;71.68
65378;SHT31;51982;51.042;13.806;2024-01-25T11:24:12;11.70;72.17
65378;SHT31;51982;51.042;13.806;2024-01-25T11:26:37;11.74;71.97
65378;SHT31;51982;51.042;13.806;2024-01-25T11:29:03;11.74;71.94
65378;SHT31;51982;51.042;13.806;2024-01-25T11:31:28;11.71;72.03
65378;SHT31;51982;51.042;13.806;2024-01-25T11:33:57;11.67;71.98
65378;SHT31;51982;51.042;13.806;2024-01-25T11:36:24;11.93;71.75
65378;SHT31;51982;51.042;13.806;2024-01-25T11:38:49;11.88;71.83
65378;SHT31;51982;51.042;13.806;2024-01-25T11:41:15;11.80;71.92
65378;SHT31;51982;51.042;13.806;2024-01-25T11:43:40;11.78;72.17
65378;SHT31;51982;51.042;13.806;2024-01-25T11:46:05;11.74;72.09
65378;SHT31;51982;51.042;13.806;2024-01-25T11:48:31;11.81;71.97
65378;SHT31;51982;51.042;13.806;2024-01-25T11:50:58;11.88;71.85
65378;SHT31;51982;51.042;13.806;2024-01-25T11:53:23;11.99;72.13
65378;SHT31;51982;51.042;13.806;2024-01-25T11:55:48;11.99;71.45
65378;SHT31;51982;51.042;13.806;2024-01-25T11:58:14;11.97;71.25
65378;SHT31;51982;51.042;13.806;2024-01-25T12:00:40;12.01;71.12
65378;SHT31;51982;51.042;13.806;2024-01-25T12:03:05;11.90;70.87
65378;SHT31;51982;51.042;13.806;2024-01-25T12:05:31;11.88;70.88
65378;SHT31;51982;51.042;13.806;2024-01-25T12:07:56;11.74;70.88
65378;SHT31;51982;51.042;13.806;2024-01-25T12:10:21;11.91;70.53
65378;SHT31;51982;51.042;13.806;2024-01-25T12:12:48;11.93;70.33
65378;SHT31;51982;51.042;13.806;2024-01-25T12:15:13;11.84;70.57
65378;SHT31;51982;51.042;13.806;2024-01-25T12:17:39;11.84;71.02
65378;SHT31;51982;51.042;13.806;2024-01-25T12:20:05;11.85;70.77
65378;SHT31;51982;51.042;13.806;2024-01-25T12:22:36;11.80;70.55
65378;SHT31;51982;51.042;13.806;2024-01-25T12:25:02;11.71;70.82
65378;SHT31;51982;51.042;13.806;2024-01-25T12:27:28;11.73;71.02
65378;SHT31;51982;51.042;13.806;2024-01-25T12:29:55;11.87;71.03
65378;SHT31;51982;51.042;13.806;2024-01-25T12:32:21;11.77;71.37
65378;SHT31;51982;51.042;13.806;2024-01-25T12:34:57;11.66;71.61
65378;SHT31;51982;51.042;13.806;2024-01-25T12:37:22;11.70;71.74
65378;SHT31;51982;51.042;13.806;2024-01-25T12:39:48;11.69;71.83
65378;SHT31;51982;51.042;13.806;2024-01-25T12:42:13;11.63;71.96
65378;SHT31;51982;51.042;13.806;2024-01-25T12:44:39;11.61;72.15
65378;SHT31;51982;51.042;13.806;2024-01-25T12:47:04;11.59;72.07
65378;SHT31;51982;51.042;13.806;2024-01-25T12:49:32;11.70;72.10
65378;SHT31;51982;51.042;13.806;2024-01-25T12:51:57;11.60;71.98
65378;SHT31;51982;51.042;13.806;2024-01-25T12:54:22;11.70;71.87
65378;SHT31;51982;51.042;13.806;2024-01-25T12:56:47;11.74;71.77
65378;SHT31;51982;51.042;13.806;2024-01-25T12:59:13;11.63;71.70
65378;SHT31;51982;51.042;13.806;2024-01-25T13:01:38;11.51;72.16
65378;SHT31;51982;51.042;13.806;2024-01-25T13:04:03;11.63;72.14
65378;SHT31;51982;51.042;13.806;2024-01-25T13:06:29;11.74;72.06
65378;SHT31;51982;51.042;13.806;2024-01-25T13:08:54;11.73;71.98
65378;SHT31;51982;51.042;13.806;2024-01-25T13:11:19;11.75;71.94
65378;SHT31;51982;51.042;13.806;2024-01-25T13:13:44;11.83;71.90
65378;SHT31;51982;51.042;13.806;2024-01-25T13:16:10;11.60;72.08
65378;SHT31;51982;51.042;13.806;2024-01-25T13:18:35;11.64;72.28
65378;SHT31;51982;51.042;13.806;2024-01-25T13:21:01;11.60;72.43
65378;SHT31;51982;51.042;13.806;2024-01-25T13:23:26;11.60;72.45
65378;SHT31;51982;51.042;13.806;2024-01-25T13:25:51;11.60;72.35
65378;SHT31;51982;51.042;13.806;2024-01-25T13:28:16;11.60;72.14
65378;SHT31;51982;51.042;13.806;2024-01-25T13:30:41;11.70;72.00
65378;SHT31;51982;51.042;13.806;2024-01-25T13:33:07;11.67;71.96
65378;SHT31;51982;51.042;13.806;2024-01-25T13:35:32;11.54;71.69
65378;SHT31;51982;51.042;13.806;2024-01-25T13:37:57;11.57;71.79
65378;SHT31;51982;51.042;13.806;2024-01-25T13:40:26;11.64;71.80
65378;SHT31;51982;51.042;13.806;2024-01-25T13:42:51;11.64;71.64
65378;SHT31;51982;51.042;13.806;2024-01-25T13:45:17;11.66;71.69
65378;SHT31;51982;51.042;13.806;2024-01-25T13:47:42;11.61;71.74
65378;SHT31;51982;51.042;13.806;2024-01-25T13:50:07;11.59;71.62
65378;SHT31;51982;51.042;13.806;2024-01-25T13:52:32;11.49;71.86
65378;SHT31;51982;51.042;13.806;2024-01-25T13:54:57;11.50;71.94
65378;SHT31;51982;51.042;13.806;2024-01-25T13:57:23;11.44;72.21
65378;SHT31;51982;51.042;13.806;2024-01-25T13:59:49;11.40;72.38
65378;SHT31;51982;51.042;13.806;2024-01-25T14:02:14;11.42;72.44
65378;SHT31;51982;51.042;13.806;2024-01-25T14:04:40;11.46;72.55
65378;SHT31;51982;51.042;13.806;2024-01-25T14:07:05;11.46;72.41
65378;SHT31;51982;51.042;13.806;2024-01-25T14:09:30;11.49;72.32
65378;SHT31;51982;51.042;13.806;2024-01-25T14:11:56;11.47;72.33
65378;SHT31;51982;51.042;13.806;2024-01-25T14:14:21;11.37;72.46
65378;SHT31;51982;51.042;13.806;2024-01-25T14:16:46;11.33;72.70
65378;SHT31;51982;51.042;13.806;2024-01-25T14:19:11;11.27;72.85
65378;SHT31;51982;51.042;13.806;2024-01-25T14:21:37;11.23;72.87
65378;SHT31;51982;51.042;13.806;2024-01-25T14:24:02;11.24;72.84
65378;SHT31;51982;51.042;13.806;2024-01-25T14:26:27;11.27;72.87
65378;SHT31;51982;51.042;13.806;2024-01-25T14:28:52;11.27;72.86
65378;SHT31;51982;51.042;13.806;2024-01-25T14:31:18;11.23;72.98
65378;SHT31;51982;51.042;13.806;2024-01-25T14:33:43;11.19;72.98
65378;SHT31;51982;51.042;13.806;2024-01-25T14:36:08;11.13;72.94
65378;SHT31;51982;51.042;13.806;2024-01-25T14:38:34;11.09;72.94
65378;SHT31;51982;51.042;13.806;2024-01-25T14:40:59;11.15;72.97
65378;SHT31;51982;51.042;13.806;2024-01-25T14:43:25;11.13;72.86
65378;SHT31;51982;51.042;13.806;2024-01-25T14:45:50;11.13;72.71
65378;SHT31;51982;51.042;13.806;2024-01-25T14:48:15;11.10;72.82
65378;SHT31;51982;51.042;13.806;2024-01-25T14:50:42;11.16;72.76
65378;SHT31;51982;51.042;13.806;2024-01-25T14:53:07;11.16;72.58
65378;SHT31;51982;51.042;13.806;2024-01-25T14:55:32;11.09;72.65
65378;SHT31;51982;51.042;13.806;2024-01-25T14:57:57;11.03;72.77
65378;SHT31;51982;51.042;13.806;2024-01-25T15:00:23;11.03;72.79
65378;SHT31;51982;51.042;13.806;2024-01-25T15:02:48;10.98;72.93
65378;SHT31;51982;51.042;13.806;2024-01-25T15:05:13;11.05;72.88
65378;SHT31;51982;51.042;13.806;2024-01-25T15:07:40;10.99;72.89